sensor_id;sensor_type;location;lat;lon;timestamp;temperature;humidity
10986;DHT22;5546;48.714;8.738;2023-06-14T00:00:43;16.50;62.20
10986;DHT22;5546;48.714;8.738;2023-06-14T00:03:10;16.50;61.40
10986;DHT22;5546;48.714;8.738;2023-06-14T00:08:06;16.30;61.90
10986;DHT22;5546;48.714;8.738;2023-06-14T00:10:38;16.20;62.00
10986;DHT22;5546;48.714;8.738;2023-06-14T00:13:06;16.10;62.40
10986;DHT22;5546;48.714;8.738;2023-06-14T00:20:29;16.10;63.50
10986;DHT22;5546;48.714;8.738;2023-06-14T00:22:56;16.10;63.60
10986;DHT22;5546;48.714;8.738;2023-06-14T00:25:23;15.80;64.30
10986;DHT22;5546;48.714;8.738;2023-06-14T00:30:16;15.20;65.60
10986;DHT22;5546;48.714;8.738;2023-06-14T00:32:42;15.50;65.00
10986;DHT22;5546;48.714;8.738;2023-06-14T00:35:08;15.70;64.10
10986;DHT22;5546;48.714;8.738;2023-06-14T00:42:27;15.70;65.00
10986;DHT22;5546;48.714;8.738;2023-06-14T00:47:19;15.60;65.40
10986;DHT22;5546;48.714;8.738;2023-06-14T00:52:12;15.70;65.60
10986;DHT22;5546;48.714;8.738;2023-06-14T00:54:40;15.70;65.60
10986;DHT22;5546;48.714;8.738;2023-06-14T00:57:07;15.50;66.50
10986;DHT22;5546;48.714;8.738;2023-06-14T01:07:01;15.20;66.90
10986;DHT22;5546;48.714;8.738;2023-06-14T01:10:03;15.20;67.90
10986;DHT22;5546;48.714;8.738;2023-06-14T01:12:47;15.20;67.60
10986;DHT22;5546;48.714;8.738;2023-06-14T01:15:16;15.20;68.10
10986;DHT22;5546;48.714;8.738;2023-06-14T01:20:11;14.90;68.30
10986;DHT22;5546;48.714;8.738;2023-06-14T01:22:51;15.00;68.30
10986;DHT22;5546;48.714;8.738;2023-06-14T01:25:17;15.00;68.70
10986;DHT22;5546;48.714;8.738;2023-06-14T01:27:49;15.10;68.10
10986;DHT22;5546;48.714;8.738;2023-06-14T01:30:17;15.00;68.20
10986;DHT22;5546;48.714;8.738;2023-06-14T01:32:43;14.90;68.80
10986;DHT22;5546;48.714;8.738;2023-06-14T01:37:35;15.00;68.60
10986;DHT22;5546;48.714;8.738;2023-06-14T01:40:03;14.90;68.50
10986;DHT22;5546;48.714;8.738;2023-06-14T01:42:30;15.00;68.50
10986;DHT22;5546;48.714;8.738;2023-06-14T01:44:56;14.70;68.90
10986;DHT22;5546;48.714;8.738;2023-06-14T01:47:22;14.70;69.80
10986;DHT22;5546;48.714;8.738;2023-06-14T01:49:47;14.70;69.80
10986;DHT22;5546;48.714;8.738;2023-06-14T01:52:13;14.70;70.00
10986;DHT22;5546;48.714;8.738;2023-06-14T01:57:07;14.60;70.30
10986;DHT22;5546;48.714;8.738;2023-06-14T01:59:33;14.70;70.30
10986;DHT22;5546;48.714;8.738;2023-06-14T02:02:01;14.80;69.70
10986;DHT22;5546;48.714;8.738;2023-06-14T02:09:18;14.50;70.90
10986;DHT22;5546;48.714;8.738;2023-06-14T02:11:44;14.30;71.30
10986;DHT22;5546;48.714;8.738;2023-06-14T02:19:04;14.20;72.20
10986;DHT22;5546;48.714;8.738;2023-06-14T02:21:30;14.20;72.40
10986;DHT22;5546;48.714;8.738;2023-06-14T02:23:55;14.20;72.80
10986;DHT22;5546;48.714;8.738;2023-06-14T02:26:21;14.40;72.70
10986;DHT22;5546;48.714;8.738;2023-06-14T02:28:48;14.20;72.30
10986;DHT22;5546;48.714;8.738;2023-06-14T02:33:40;14.20;72.60
10986;DHT22;5546;48.714;8.738;2023-06-14T02:36:06;14.10;73.20
10986;DHT22;5546;48.714;8.738;2023-06-14T02:38:31;14.10;73.20
10986;DHT22;5546;48.714;8.738;2023-06-14T02:40:57;14.00;73.90
10986;DHT22;5546;48.714;8.738;2023-06-14T02:45:50;14.00;73.90
10986;DHT22;5546;48.714;8.738;2023-06-14T02:53:08;14.20;73.20
10986;DHT22;5546;48.714;8.738;2023-06-14T03:07:49;13.70;75.20
10986;DHT22;5546;48.714;8.738;2023-06-14T03:10:15;13.60;75.40
10986;DHT22;5546;48.714;8.738;2023-06-14T03:12:41;13.70;75.20
10986;DHT22;5546;48.714;8.738;2023-06-14T03:15:07;13.60;75.30
10986;DHT22;5546;48.714;8.738;2023-06-14T03:17:34;13.60;75.60
10986;DHT22;5546;48.714;8.738;2023-06-14T03:22:26;13.40;76.90
10986;DHT22;5546;48.714;8.738;2023-06-14T03:24:52;13.40;76.50
10986;DHT22;5546;48.714;8.738;2023-06-14T03:27:19;13.50;76.40
10986;DHT22;5546;48.714;8.738;2023-06-14T03:34:37;13.40;77.00
10986;DHT22;5546;48.714;8.738;2023-06-14T03:37:04;13.50;76.80
10986;DHT22;5546;48.714;8.738;2023-06-14T03:39:30;13.60;76.40
10986;DHT22;5546;48.714;8.738;2023-06-14T03:41:55;13.50;76.70
10986;DHT22;5546;48.714;8.738;2023-06-14T03:44:21;13.50;77.00
10986;DHT22;5546;48.714;8.738;2023-06-14T03:49:13;13.50;76.80
10986;DHT22;5546;48.714;8.738;2023-06-14T03:51:39;13.50;77.10
10986;DHT22;5546;48.714;8.738;2023-06-14T03:54:05;13.50;76.90
10986;DHT22;5546;48.714;8.738;2023-06-14T03:56:31;13.60;77.10
10986;DHT22;5546;48.714;8.738;2023-06-14T04:06:18;13.80;76.80
10986;DHT22;5546;48.714;8.738;2023-06-14T04:08:45;13.80;77.10
10986;DHT22;5546;48.714;8.738;2023-06-14T04:20:56;13.60;78.70
10986;DHT22;5546;48.714;8.738;2023-06-14T04:23:22;13.50;79.10
10986;DHT22;5546;48.714;8.738;2023-06-14T04:25:47;13.50;79.50
10986;DHT22;5546;48.714;8.738;2023-06-14T04:30:41;13.80;78.60
10986;DHT22;5546;48.714;8.738;2023-06-14T04:33:07;13.70;78.30
10986;DHT22;5546;48.714;8.738;2023-06-14T04:35:35;13.50;78.70
10986;DHT22;5546;48.714;8.738;2023-06-14T04:38:01;13.70;79.10
10986;DHT22;5546;48.714;8.738;2023-06-14T04:42:56;13.90;77.50
10986;DHT22;5546;48.714;8.738;2023-06-14T04:45:22;13.80;78.30
10986;DHT22;5546;48.714;8.738;2023-06-14T04:50:15;14.20;77.40
10986;DHT22;5546;48.714;8.738;2023-06-14T04:52:43;14.10;77.10
10986;DHT22;5546;48.714;8.738;2023-06-14T04:57:35;14.20;75.90
10986;DHT22;5546;48.714;8.738;2023-06-14T05:07:22;14.50;74.80
10986;DHT22;5546;48.714;8.738;2023-06-14T05:09:49;14.60;74.50
10986;DHT22;5546;48.714;8.738;2023-06-14T05:19:35;14.90;72.60
10986;DHT22;5546;48.714;8.738;2023-06-14T05:22:01;14.90;73.00
10986;DHT22;5546;48.714;8.738;2023-06-14T05:26:57;15.70;70.20
10986;DHT22;5546;48.714;8.738;2023-06-14T05:34:15;16.50;68.40
10986;DHT22;5546;48.714;8.738;2023-06-14T05:44:00;18.60;60.10
10986;DHT22;5546;48.714;8.738;2023-06-14T05:46:26;18.70;59.20
10986;DHT22;5546;48.714;8.738;2023-06-14T05:51:18;17.80;62.80
10986;DHT22;5546;48.714;8.738;2023-06-14T05:53:50;18.40;61.50
10986;DHT22;5546;48.714;8.738;2023-06-14T05:56:17;19.20;59.70
10986;DHT22;5546;48.714;8.738;2023-06-14T05:58:43;19.30;58.70
10986;DHT22;5546;48.714;8.738;2023-06-14T06:01:09;19.30;58.90
10986;DHT22;5546;48.714;8.738;2023-06-14T06:08:27;20.40;56.70
10986;DHT22;5546;48.714;8.738;2023-06-14T06:10:53;20.80;55.90
10986;DHT22;5546;48.714;8.738;2023-06-14T06:13:19;21.70;54.30
10986;DHT22;5546;48.714;8.738;2023-06-14T06:15:45;21.90;53.30
10986;DHT22;5546;48.714;8.738;2023-06-14T06:18:11;22.00;53.10
10986;DHT22;5546;48.714;8.738;2023-06-14T06:20:36;22.60;52.20
10986;DHT22;5546;48.714;8.738;2023-06-14T06:23:02;23.30;50.50
10986;DHT22;5546;48.714;8.738;2023-06-14T06:25:28;23.20;50.10
10986;DHT22;5546;48.714;8.738;2023-06-14T06:27:54;23.70;49.80
10986;DHT22;5546;48.714;8.738;2023-06-14T06:32:48;24.30;49.30
10986;DHT22;5546;48.714;8.738;2023-06-14T06:35:13;24.30;48.20
10986;DHT22;5546;48.714;8.738;2023-06-14T06:37:40;24.20;48.90
10986;DHT22;5546;48.714;8.738;2023-06-14T06:40:06;24.90;47.70
10986;DHT22;5546;48.714;8.738;2023-06-14T06:42:32;25.10;47.10
10986;DHT22;5546;48.714;8.738;2023-06-14T06:44:58;24.10;48.10
10986;DHT22;5546;48.714;8.738;2023-06-14T06:47:24;24.20;48.90
10986;DHT22;5546;48.714;8.738;2023-06-14T06:49:50;25.00;48.00
10986;DHT22;5546;48.714;8.738;2023-06-14T06:52:16;25.30;47.10
10986;DHT22;5546;48.714;8.738;2023-06-14T06:54:41;26.40;45.90
10986;DHT22;5546;48.714;8.738;2023-06-14T06:57:07;27.00;44.30
10986;DHT22;5546;48.714;8.738;2023-06-14T06:59:34;27.20;43.70
10986;DHT22;5546;48.714;8.738;2023-06-14T07:02:00;28.50;42.40
10986;DHT22;5546;48.714;8.738;2023-06-14T07:04:25;28.60;42.70
10986;DHT22;5546;48.714;8.738;2023-06-14T07:06:51;29.30;41.50
10986;DHT22;5546;48.714;8.738;2023-06-14T07:09:17;29.50;39.80
10986;DHT22;5546;48.714;8.738;2023-06-14T07:11:44;29.70;40.30
10986;DHT22;5546;48.714;8.738;2023-06-14T07:14:10;30.60;39.60
10986;DHT22;5546;48.714;8.738;2023-06-14T07:16:36;31.50;38.90
10986;DHT22;5546;48.714;8.738;2023-06-14T07:19:05;31.80;37.60
10986;DHT22;5546;48.714;8.738;2023-06-14T07:21:30;32.10;37.40
10986;DHT22;5546;48.714;8.738;2023-06-14T07:23:56;32.80;35.60
10986;DHT22;5546;48.714;8.738;2023-06-14T07:26:22;30.00;37.40
10986;DHT22;5546;48.714;8.738;2023-06-14T07:28:48;30.00;37.60
10986;DHT22;5546;48.714;8.738;2023-06-14T07:31:15;30.00;38.10
10986;DHT22;5546;48.714;8.738;2023-06-14T07:33:41;30.50;36.00
10986;DHT22;5546;48.714;8.738;2023-06-14T07:36:07;30.60;36.50
10986;DHT22;5546;48.714;8.738;2023-06-14T07:38:33;31.60;35.30
10986;DHT22;5546;48.714;8.738;2023-06-14T07:40:59;31.90;35.00
10986;DHT22;5546;48.714;8.738;2023-06-14T07:43:25;32.10;34.70
10986;DHT22;5546;48.714;8.738;2023-06-14T07:45:51;32.80;34.20
10986;DHT22;5546;48.714;8.738;2023-06-14T07:48:16;33.00;33.60
10986;DHT22;5546;48.714;8.738;2023-06-14T07:50:42;33.40;32.30
10986;DHT22;5546;48.714;8.738;2023-06-14T07:53:08;33.10;32.40
10986;DHT22;5546;48.714;8.738;2023-06-14T07:55:33;31.80;34.10
10986;DHT22;5546;48.714;8.738;2023-06-14T07:58:02;32.80;33.50
10986;DHT22;5546;48.714;8.738;2023-06-14T08:00:28;32.20;33.40
10986;DHT22;5546;48.714;8.738;2023-06-14T08:02:53;32.90;33.20
10986;DHT22;5546;48.714;8.738;2023-06-14T08:05:24;33.00;33.20
10986;DHT22;5546;48.714;8.738;2023-06-14T08:07:51;31.80;34.10
10986;DHT22;5546;48.714;8.738;2023-06-14T08:10:17;32.20;33.60
10986;DHT22;5546;48.714;8.738;2023-06-14T08:12:42;32.20;33.60
10986;DHT22;5546;48.714;8.738;2023-06-14T08:15:08;32.50;32.80
10986;DHT22;5546;48.714;8.738;2023-06-14T08:17:34;33.40;32.60
10986;DHT22;5546;48.714;8.738;2023-06-14T08:20:00;33.20;32.50
10986;DHT22;5546;48.714;8.738;2023-06-14T08:22:25;32.70;32.50
10986;DHT22;5546;48.714;8.738;2023-06-14T08:24:53;33.10;31.90
10986;DHT22;5546;48.714;8.738;2023-06-14T08:27:19;32.90;32.00
10986;DHT22;5546;48.714;8.738;2023-06-14T08:29:45;31.00;33.80
10986;DHT22;5546;48.714;8.738;2023-06-14T08:32:11;30.60;35.30
10986;DHT22;5546;48.714;8.738;2023-06-14T08:34:36;31.60;35.20
10986;DHT22;5546;48.714;8.738;2023-06-14T08:37:02;32.60;33.60
10986;DHT22;5546;48.714;8.738;2023-06-14T08:39:27;32.70;32.50
10986;DHT22;5546;48.714;8.738;2023-06-14T08:41:54;32.10;33.10
10986;DHT22;5546;48.714;8.738;2023-06-14T08:44:21;32.20;33.00
10986;DHT22;5546;48.714;8.738;2023-06-14T08:46:48;32.60;32.70
10986;DHT22;5546;48.714;8.738;2023-06-14T08:49:16;32.80;32.40
10986;DHT22;5546;48.714;8.738;2023-06-14T08:51:43;33.30;32.20
10986;DHT22;5546;48.714;8.738;2023-06-14T08:54:11;34.20;31.50
10986;DHT22;5546;48.714;8.738;2023-06-14T08:56:38;33.40;31.50
10986;DHT22;5546;48.714;8.738;2023-06-14T08:59:04;32.70;32.20
10986;DHT22;5546;48.714;8.738;2023-06-14T09:01:35;33.00;32.30
10986;DHT22;5546;48.714;8.738;2023-06-14T09:04:01;32.70;32.80
10986;DHT22;5546;48.714;8.738;2023-06-14T09:06:27;32.80;32.90
10986;DHT22;5546;48.714;8.738;2023-06-14T09:08:55;32.20;30.90
10986;DHT22;5546;48.714;8.738;2023-06-14T09:11:22;32.50;32.20
10986;DHT22;5546;48.714;8.738;2023-06-14T09:16:16;33.30;32.00
10986;DHT22;5546;48.714;8.738;2023-06-14T09:18:46;33.80;30.90
10986;DHT22;5546;48.714;8.738;2023-06-14T09:21:14;34.10;31.20
10986;DHT22;5546;48.714;8.738;2023-06-14T09:23:42;34.40;31.10
10986;DHT22;5546;48.714;8.738;2023-06-14T09:26:09;34.60;30.40
10986;DHT22;5546;48.714;8.738;2023-06-14T09:28:35;34.30;30.80
10986;DHT22;5546;48.714;8.738;2023-06-14T09:31:01;34.70;30.70
10986;DHT22;5546;48.714;8.738;2023-06-14T09:33:27;35.50;29.90
10986;DHT22;5546;48.714;8.738;2023-06-14T09:35:55;35.30;30.00
10986;DHT22;5546;48.714;8.738;2023-06-14T09:38:21;34.20;30.00
10986;DHT22;5546;48.714;8.738;2023-06-14T09:43:12;33.30;31.50
10986;DHT22;5546;48.714;8.738;2023-06-14T09:45:39;33.50;31.40
10986;DHT22;5546;48.714;8.738;2023-06-14T09:48:11;34.40;30.00
10986;DHT22;5546;48.714;8.738;2023-06-14T09:50:37;34.70;30.00
10986;DHT22;5546;48.714;8.738;2023-06-14T09:53:10;35.10;27.90
10986;DHT22;5546;48.714;8.738;2023-06-14T09:55:37;33.10;29.40
10986;DHT22;5546;48.714;8.738;2023-06-14T09:58:07;33.80;28.80
10986;DHT22;5546;48.714;8.738;2023-06-14T10:00:33;34.00;29.20
10986;DHT22;5546;48.714;8.738;2023-06-14T10:03:27;33.00;29.90
10986;DHT22;5546;48.714;8.738;2023-06-14T10:05:55;33.70;30.00
10986;DHT22;5546;48.714;8.738;2023-06-14T10:08:27;33.50;29.60
10986;DHT22;5546;48.714;8.738;2023-06-14T10:10:56;34.00;29.60
10986;DHT22;5546;48.714;8.738;2023-06-14T10:13:22;34.80;28.70
10986;DHT22;5546;48.714;8.738;2023-06-14T10:16:18;34.70;29.10
10986;DHT22;5546;48.714;8.738;2023-06-14T10:21:38;34.80;27.60
10986;DHT22;5546;48.714;8.738;2023-06-14T10:24:08;35.80;26.50
10986;DHT22;5546;48.714;8.738;2023-06-14T10:26:50;35.40;25.60
10986;DHT22;5546;48.714;8.738;2023-06-14T10:29:16;36.20;26.00
10986;DHT22;5546;48.714;8.738;2023-06-14T10:31:43;36.50;25.30
10986;DHT22;5546;48.714;8.738;2023-06-14T10:34:10;35.50;26.00
10986;DHT22;5546;48.714;8.738;2023-06-14T10:36:38;35.20;27.00
10986;DHT22;5546;48.714;8.738;2023-06-14T10:39:14;35.90;27.30
10986;DHT22;5546;48.714;8.738;2023-06-14T10:41:41;35.10;28.00
10986;DHT22;5546;48.714;8.738;2023-06-14T10:46:39;35.50;28.60
10986;DHT22;5546;48.714;8.738;2023-06-14T10:49:05;35.60;28.90
10986;DHT22;5546;48.714;8.738;2023-06-14T10:51:39;34.90;27.20
10986;DHT22;5546;48.714;8.738;2023-06-14T10:54:15;33.40;28.30
10986;DHT22;5546;48.714;8.738;2023-06-14T10:56:51;30.90;30.40
10986;DHT22;5546;48.714;8.738;2023-06-14T10:59:18;31.60;30.10
10986;DHT22;5546;48.714;8.738;2023-06-14T11:01:57;33.50;28.90
10986;DHT22;5546;48.714;8.738;2023-06-14T11:04:33;33.70;28.30
10986;DHT22;5546;48.714;8.738;2023-06-14T11:07:16;33.90;29.40
10986;DHT22;5546;48.714;8.738;2023-06-14T11:12:33;33.60;27.80
10986;DHT22;5546;48.714;8.738;2023-06-14T11:15:01;33.50;28.10
10986;DHT22;5546;48.714;8.738;2023-06-14T11:20:08;35.20;26.80
10986;DHT22;5546;48.714;8.738;2023-06-14T11:22:41;35.40;26.80
10986;DHT22;5546;48.714;8.738;2023-06-14T11:25:09;34.20;27.60
10986;DHT22;5546;48.714;8.738;2023-06-14T11:27:35;33.30;28.20
10986;DHT22;5546;48.714;8.738;2023-06-14T11:30:01;33.70;28.70
10986;DHT22;5546;48.714;8.738;2023-06-14T11:32:27;34.10;28.30
10986;DHT22;5546;48.714;8.738;2023-06-14T11:34:53;34.00;28.60
10986;DHT22;5546;48.714;8.738;2023-06-14T11:37:19;35.00;28.00
10986;DHT22;5546;48.714;8.738;2023-06-14T11:39:45;35.20;26.50
10986;DHT22;5546;48.714;8.738;2023-06-14T11:42:17;36.20;26.30
10986;DHT22;5546;48.714;8.738;2023-06-14T11:44:46;37.10;26.00
10986;DHT22;5546;48.714;8.738;2023-06-14T11:47:11;35.80;26.20
10986;DHT22;5546;48.714;8.738;2023-06-14T11:49:37;36.30;26.90
10986;DHT22;5546;48.714;8.738;2023-06-14T11:52:02;36.70;25.60
10986;DHT22;5546;48.714;8.738;2023-06-14T11:54:28;36.00;26.10
10986;DHT22;5546;48.714;8.738;2023-06-14T11:56:54;36.00;26.80
10986;DHT22;5546;48.714;8.738;2023-06-14T11:59:20;35.60;26.90
10986;DHT22;5546;48.714;8.738;2023-06-14T12:01:47;34.10;27.70
10986;DHT22;5546;48.714;8.738;2023-06-14T12:04:13;32.70;28.70
10986;DHT22;5546;48.714;8.738;2023-06-14T12:09:06;32.30;29.10
10986;DHT22;5546;48.714;8.738;2023-06-14T12:11:36;33.60;27.90
10986;DHT22;5546;48.714;8.738;2023-06-14T12:14:05;35.30;26.80
10986;DHT22;5546;48.714;8.738;2023-06-14T12:16:36;35.90;26.10
10986;DHT22;5546;48.714;8.738;2023-06-14T12:19:28;35.60;26.50
10986;DHT22;5546;48.714;8.738;2023-06-14T12:21:54;35.70;27.00
10986;DHT22;5546;48.714;8.738;2023-06-14T12:24:20;35.70;27.40
10986;DHT22;5546;48.714;8.738;2023-06-14T12:26:45;36.80;26.10
10986;DHT22;5546;48.714;8.738;2023-06-14T12:29:12;37.40;25.60
10986;DHT22;5546;48.714;8.738;2023-06-14T12:31:38;38.10;24.70
10986;DHT22;5546;48.714;8.738;2023-06-14T12:34:03;36.90;26.00
10986;DHT22;5546;48.714;8.738;2023-06-14T12:36:29;36.30;26.70
10986;DHT22;5546;48.714;8.738;2023-06-14T12:38:55;37.10;26.50
10986;DHT22;5546;48.714;8.738;2023-06-14T12:41:21;37.00;26.80
10986;DHT22;5546;48.714;8.738;2023-06-14T12:43:47;37.10;26.00
10986;DHT22;5546;48.714;8.738;2023-06-14T12:46:13;36.30;26.30
10986;DHT22;5546;48.714;8.738;2023-06-14T12:48:38;36.70;26.60
10986;DHT22;5546;48.714;8.738;2023-06-14T12:51:04;37.00;26.70
10986;DHT22;5546;48.714;8.738;2023-06-14T12:53:29;38.20;25.90
10986;DHT22;5546;48.714;8.738;2023-06-14T12:55:55;38.30;25.90
10986;DHT22;5546;48.714;8.738;2023-06-14T12:58:21;36.20;27.00
10986;DHT22;5546;48.714;8.738;2023-06-14T13:00:47;36.70;26.70
10986;DHT22;5546;48.714;8.738;2023-06-14T13:03:12;36.60;26.80
10986;DHT22;5546;48.714;8.738;2023-06-14T13:05:38;36.40;27.60
10986;DHT22;5546;48.714;8.738;2023-06-14T13:08:07;36.60;27.90
10986;DHT22;5546;48.714;8.738;2023-06-14T13:10:33;37.40;26.40
10986;DHT22;5546;48.714;8.738;2023-06-14T13:12:59;36.40;26.30
10986;DHT22;5546;48.714;8.738;2023-06-14T13:15:26;36.70;26.90
10986;DHT22;5546;48.714;8.738;2023-06-14T13:17:52;37.20;25.70
10986;DHT22;5546;48.714;8.738;2023-06-14T13:22:43;35.20;27.50
10986;DHT22;5546;48.714;8.738;2023-06-14T13:25:09;35.20;27.40
10986;DHT22;5546;48.714;8.738;2023-06-14T13:27:35;35.50;27.00
10986;DHT22;5546;48.714;8.738;2023-06-14T13:30:00;35.40;27.20
10986;DHT22;5546;48.714;8.738;2023-06-14T13:32:26;36.10;27.30
10986;DHT22;5546;48.714;8.738;2023-06-14T13:34:51;35.50;27.10
10986;DHT22;5546;48.714;8.738;2023-06-14T13:37:17;35.20;27.70
10986;DHT22;5546;48.714;8.738;2023-06-14T13:44:35;35.10;27.50
10986;DHT22;5546;48.714;8.738;2023-06-14T13:47:01;36.30;26.90
10986;DHT22;5546;48.714;8.738;2023-06-14T13:49:27;36.50;26.30
10986;DHT22;5546;48.714;8.738;2023-06-14T13:51:52;35.20;27.70
10986;DHT22;5546;48.714;8.738;2023-06-14T13:54:20;33.80;29.20
10986;DHT22;5546;48.714;8.738;2023-06-14T13:56:46;34.90;28.10
10986;DHT22;5546;48.714;8.738;2023-06-14T14:01:38;34.30;27.90
10986;DHT22;5546;48.714;8.738;2023-06-14T14:04:04;34.80;27.90
10986;DHT22;5546;48.714;8.738;2023-06-14T14:06:30;35.20;28.10
10986;DHT22;5546;48.714;8.738;2023-06-14T14:08:56;36.20;27.40
10986;DHT22;5546;48.714;8.738;2023-06-14T14:11:21;36.20;27.00
10986;DHT22;5546;48.714;8.738;2023-06-14T14:18:39;35.00;28.30
10986;DHT22;5546;48.714;8.738;2023-06-14T14:21:05;34.30;28.60
10986;DHT22;5546;48.714;8.738;2023-06-14T14:25:57;35.40;27.90
10986;DHT22;5546;48.714;8.738;2023-06-14T14:28:23;36.00;27.00
10986;DHT22;5546;48.714;8.738;2023-06-14T14:30:49;36.20;27.50
10986;DHT22;5546;48.714;8.738;2023-06-14T14:33:14;36.70;26.70
10986;DHT22;5546;48.714;8.738;2023-06-14T14:35:46;36.60;26.40
10986;DHT22;5546;48.714;8.738;2023-06-14T14:38:12;36.30;26.50
10986;DHT22;5546;48.714;8.738;2023-06-14T14:40:39;33.90;27.50
10986;DHT22;5546;48.714;8.738;2023-06-14T14:43:05;32.60;28.30
10986;DHT22;5546;48.714;8.738;2023-06-14T14:45:31;30.80;30.30
10986;DHT22;5546;48.714;8.738;2023-06-14T15:00:07;28.90;32.50
10986;DHT22;5546;48.714;8.738;2023-06-14T15:02:33;29.20;32.90
10986;DHT22;5546;48.714;8.738;2023-06-14T15:07:27;28.60;33.30
10986;DHT22;5546;48.714;8.738;2023-06-14T15:09:53;28.30;34.20
10986;DHT22;5546;48.714;8.738;2023-06-14T15:14:50;28.00;34.10
10986;DHT22;5546;48.714;8.738;2023-06-14T15:17:19;27.90;34.80
10986;DHT22;5546;48.714;8.738;2023-06-14T15:19:46;28.10;32.80
10986;DHT22;5546;48.714;8.738;2023-06-14T15:22:13;28.10;33.50
10986;DHT22;5546;48.714;8.738;2023-06-14T15:24:40;27.70;34.50
10986;DHT22;5546;48.714;8.738;2023-06-14T15:27:06;27.70;34.60
10986;DHT22;5546;48.714;8.738;2023-06-14T15:34:23;27.50;35.90
10986;DHT22;5546;48.714;8.738;2023-06-14T15:36:49;28.10;34.70
10986;DHT22;5546;48.714;8.738;2023-06-14T15:39:15;28.20;35.10
10986;DHT22;5546;48.714;8.738;2023-06-14T15:41:41;28.20;35.30
10986;DHT22;5546;48.714;8.738;2023-06-14T15:48:59;27.40;34.90
10986;DHT22;5546;48.714;8.738;2023-06-14T15:51:25;27.10;35.40
10986;DHT22;5546;48.714;8.738;2023-06-14T15:56:17;26.90;35.40
10986;DHT22;5546;48.714;8.738;2023-06-14T15:58:43;27.10;35.10
10986;DHT22;5546;48.714;8.738;2023-06-14T16:13:18;27.10;36.20
10986;DHT22;5546;48.714;8.738;2023-06-14T16:15:44;27.20;36.40
10986;DHT22;5546;48.714;8.738;2023-06-14T16:20:35;26.30;37.70
10986;DHT22;5546;48.714;8.738;2023-06-14T16:25:27;25.90;37.60
10986;DHT22;5546;48.714;8.738;2023-06-14T16:27:54;26.00;38.30
10986;DHT22;5546;48.714;8.738;2023-06-14T16:35:11;26.90;36.60
10986;DHT22;5546;48.714;8.738;2023-06-14T16:37:37;26.70;37.80
10986;DHT22;5546;48.714;8.738;2023-06-14T16:47:23;26.40;39.10
10986;DHT22;5546;48.714;8.738;2023-06-14T16:49:49;26.40;39.50
10986;DHT22;5546;48.714;8.738;2023-06-14T16:52:14;26.80;39.50
10986;DHT22;5546;48.714;8.738;2023-06-14T16:57:06;26.20;39.00
10986;DHT22;5546;48.714;8.738;2023-06-14T16:59:32;25.80;39.10
10986;DHT22;5546;48.714;8.738;2023-06-14T17:02:01;25.50;39.40
10986;DHT22;5546;48.714;8.738;2023-06-14T17:04:28;25.80;38.90
10986;DHT22;5546;48.714;8.738;2023-06-14T17:11:46;25.90;39.10
10986;DHT22;5546;48.714;8.738;2023-06-14T17:21:31;25.70;40.40
10986;DHT22;5546;48.714;8.738;2023-06-14T17:26:23;21.50;38.10
10986;DHT22;5546;48.714;8.738;2023-06-14T17:41:04;25.40;41.70
10986;DHT22;5546;48.714;8.738;2023-06-14T17:43:35;25.50;41.50
10986;DHT22;5546;48.714;8.738;2023-06-14T17:46:01;25.70;41.20
10986;DHT22;5546;48.714;8.738;2023-06-14T17:53:24;25.30;42.10
10986;DHT22;5546;48.714;8.738;2023-06-14T17:58:15;25.30;41.90
10986;DHT22;5546;48.714;8.738;2023-06-14T18:00:41;25.40;42.10
10986;DHT22;5546;48.714;8.738;2023-06-14T18:10:25;25.10;42.80
10986;DHT22;5546;48.714;8.738;2023-06-14T18:15:17;25.20;43.20
10986;DHT22;5546;48.714;8.738;2023-06-14T18:20:08;25.00;43.90
10986;DHT22;5546;48.714;8.738;2023-06-14T18:22:34;25.20;44.20
10986;DHT22;5546;48.714;8.738;2023-06-14T18:25:00;25.20;43.40
10986;DHT22;5546;48.714;8.738;2023-06-14T18:34:43;24.50;46.20
10986;DHT22;5546;48.714;8.738;2023-06-14T18:39:35;24.40;47.00
10986;DHT22;5546;48.714;8.738;2023-06-14T18:42:01;24.30;46.70
10986;DHT22;5546;48.714;8.738;2023-06-14T18:44:27;24.30;46.80
10986;DHT22;5546;48.714;8.738;2023-06-14T18:54:11;24.40;46.80
10986;DHT22;5546;48.714;8.738;2023-06-14T18:59:03;24.50;47.30
10986;DHT22;5546;48.714;8.738;2023-06-14T19:01:29;24.40;47.50
10986;DHT22;5546;48.714;8.738;2023-06-14T19:03:55;23.90;48.30
10986;DHT22;5546;48.714;8.738;2023-06-14T19:06:21;24.10;48.60
10986;DHT22;5546;48.714;8.738;2023-06-14T19:08:49;24.00;49.00
10986;DHT22;5546;48.714;8.738;2023-06-14T19:11:15;23.80;48.30
10986;DHT22;5546;48.714;8.738;2023-06-14T19:13:41;23.60;48.10
10986;DHT22;5546;48.714;8.738;2023-06-14T19:18:33;23.90;48.70
10986;DHT22;5546;48.714;8.738;2023-06-14T19:30:43;23.60;49.00
10986;DHT22;5546;48.714;8.738;2023-06-14T19:35:35;23.30;50.40
10986;DHT22;5546;48.714;8.738;2023-06-14T19:38:00;23.20;50.90
10986;DHT22;5546;48.714;8.738;2023-06-14T19:40:27;23.20;51.50
10986;DHT22;5546;48.714;8.738;2023-06-14T19:42:53;23.10;51.90
10986;DHT22;5546;48.714;8.738;2023-06-14T19:55:03;22.50;53.40
10986;DHT22;5546;48.714;8.738;2023-06-14T20:04:47;22.00;54.40
10986;DHT22;5546;48.714;8.738;2023-06-14T20:12:05;21.80;55.00
10986;DHT22;5546;48.714;8.738;2023-06-14T20:14:32;21.70;55.10
10986;DHT22;5546;48.714;8.738;2023-06-14T20:19:24;21.40;55.90
10986;DHT22;5546;48.714;8.738;2023-06-14T20:21:49;21.20;56.70
10986;DHT22;5546;48.714;8.738;2023-06-14T20:24:15;21.10;57.20
10986;DHT22;5546;48.714;8.738;2023-06-14T20:29:06;21.00;57.10
10986;DHT22;5546;48.714;8.738;2023-06-14T20:31:32;21.10;57.00
10986;DHT22;5546;48.714;8.738;2023-06-14T20:36:23;21.00;57.20
10986;DHT22;5546;48.714;8.738;2023-06-14T20:38:49;21.00;57.70
10986;DHT22;5546;48.714;8.738;2023-06-14T20:41:15;20.80;57.80
10986;DHT22;5546;48.714;8.738;2023-06-14T20:46:10;20.60;59.00
10986;DHT22;5546;48.714;8.738;2023-06-14T20:48:37;20.60;58.80
10986;DHT22;5546;48.714;8.738;2023-06-14T20:51:02;20.70;58.60
10986;DHT22;5546;48.714;8.738;2023-06-14T20:53:28;20.70;58.80
10986;DHT22;5546;48.714;8.738;2023-06-14T20:58:19;20.90;58.50
10986;DHT22;5546;48.714;8.738;2023-06-14T21:00:46;20.80;58.90
10986;DHT22;5546;48.714;8.738;2023-06-14T21:03:11;20.80;59.10
10986;DHT22;5546;48.714;8.738;2023-06-14T21:05:37;20.90;58.80
10986;DHT22;5546;48.714;8.738;2023-06-14T21:12:56;20.70;59.40
10986;DHT22;5546;48.714;8.738;2023-06-14T21:15:22;20.80;59.10
10986;DHT22;5546;48.714;8.738;2023-06-14T21:17:53;21.00;59.00
10986;DHT22;5546;48.714;8.738;2023-06-14T21:20:19;20.90;58.90
10986;DHT22;5546;48.714;8.738;2023-06-14T21:22:45;20.70;59.40
10986;DHT22;5546;48.714;8.738;2023-06-14T21:25:12;20.80;59.10
10986;DHT22;5546;48.714;8.738;2023-06-14T21:30:04;20.80;59.10
10986;DHT22;5546;48.714;8.738;2023-06-14T21:32:30;20.60;59.50
10986;DHT22;5546;48.714;8.738;2023-06-14T21:39:47;20.40;60.20
10986;DHT22;5546;48.714;8.738;2023-06-14T21:42:13;20.40;60.50
10986;DHT22;5546;48.714;8.738;2023-06-14T21:44:39;20.20;61.00
10986;DHT22;5546;48.714;8.738;2023-06-14T21:47:07;20.30;60.50